Photometre #944[NE_1.6] Marseille_ATMO AOT

File : 20220923_944.hum

23/09/2022,06:15:43,TEMP=15.5,BA=5.60,STAT.A=11.0,ExtBa=13.03
23/09/2022,06:19:15,TEMP=15.7,BA=5.60,STAT.A=11.0,ExtBa=12.89
23/09/2022,06:23:23,TEMP=15.8,BA=5.52,STAT.A=11.0,ExtBa=12.88
23/09/2022,06:28:18,TEMP=15.9,BA=5.52,STAT.A=11.0,ExtBa=12.91
23/09/2022,06:34:14,TEMP=16.0,BA=5.60,STAT.A=11.0,ExtBa=12.95
23/09/2022,06:41:33,TEMP=16.2,BA=5.60,STAT.A=11.0,ExtBa=12.98
23/09/2022,06:50:47,TEMP=16.6,BA=5.60,STAT.B=11.0,ExtBa=12.99
23/09/2022,06:59:52,TEMP=17.8,BA=5.60,STAT.A=10.5,ExtBa=12.72
23/09/2022,07:01:49,TEMP=18.1,BA=5.60,STAT.A=10.5,ExtBa=12.73
23/09/2022,07:05:44,TEMP=18.2,BA=5.60,STAT.A=11.0,ExtBa=12.82
23/09/2022,07:12:05,TEMP=18.8,BA=5.60,STAT.A=11.0,ExtBa=12.85
23/09/2022,07:19:23,TEMP=19.5,BA=5.60,STAT.C=11.0,ExtBa=12.90
23/09/2022,07:33:17,TEMP=21.3,BA=5.60,STAT.A=11.0,ExtBa=12.73
23/09/2022,07:37:54,TEMP=21.3,BA=5.60,STAT.A=11.0,ExtBa=12.85
23/09/2022,07:49:57,TEMP=22.3,BA=5.60,STAT.A=11.5,ExtBa=12.92
23/09/2022,08:04:48,TEMP=24.0,BA=5.60,STAT.A=11.5,ExtBa=12.98
23/09/2022,08:23:40,TEMP=25.0,BA=5.60,STAT.B=11.5,ExtBa=12.99
23/09/2022,08:32:28,TEMP=25.7,BA=5.56,STAT.F,ExtBa=12.70
23/09/2022,08:46:32,TEMP=26.2,BA=5.56,STAT.D=11.5,ExtBa=12.73
23/09/2022,09:01:32,TEMP=26.3,BA=5.60,STAT.D=11.5,ExtBa=12.94
23/09/2022,09:16:32,TEMP=27.7,BA=5.60,STAT.D=12.5,ExtBa=12.98
23/09/2022,09:31:34,TEMP=28.4,BA=5.60,STAT.F,ExtBa=12.98
23/09/2022,09:49:42,TEMP=28.0,BA=5.52,STAT.D=12.5,ExtBa=12.85
23/09/2022,10:01:32,TEMP=27.9,BA=5.60,STAT.D=12.5,ExtBa=12.90
23/09/2022,10:16:32,TEMP=28.4,BA=5.60,STAT.D=12.5,ExtBa=12.94
23/09/2022,10:31:34,TEMP=28.6,BA=5.60,STAT.F,ExtBa=12.95
23/09/2022,10:46:32,TEMP=28.6,BA=5.56,STAT.D=12.5,ExtBa=12.78
23/09/2022,11:01:32,TEMP=28.6,BA=5.60,STAT.D=12.5,ExtBa=12.91
23/09/2022,11:16:32,TEMP=29.2,BA=5.60,STAT.D=12.5,ExtBa=12.90
23/09/2022,11:31:34,TEMP=28.9,BA=5.60,STAT.F,ExtBa=12.93
23/09/2022,11:46:32,TEMP=28.8,BA=5.56,STAT.D=12.5,ExtBa=12.79
23/09/2022,12:01:32,TEMP=28.5,BA=5.60,STAT.D=12.5,ExtBa=12.89
23/09/2022,12:16:32,TEMP=29.3,BA=5.60,STAT.D=12.5,ExtBa=12.91
23/09/2022,12:31:34,TEMP=29.9,BA=5.60,STAT.F,ExtBa=12.93
23/09/2022,12:46:32,TEMP=30.0,BA=5.48,STAT.D=12.5,ExtBa=12.75
23/09/2022,13:01:32,TEMP=30.3,BA=5.60,STAT.D=12.5,ExtBa=12.86
23/09/2022,13:16:32,TEMP=30.5,BA=5.60,STAT.D=12.5,ExtBa=12.89
23/09/2022,13:31:34,TEMP=30.3,BA=5.60,STAT.F,ExtBa=12.90
23/09/2022,13:46:32,TEMP=30.0,BA=5.48,STAT.D=12.5,ExtBa=12.69
23/09/2022,14:01:32,TEMP=30.0,BA=5.60,STAT.D=12.5,ExtBa=12.82
23/09/2022,14:16:32,TEMP=29.7,BA=5.60,STAT.D=12.5,ExtBa=12.83
23/09/2022,14:31:33,TEMP=29.8,BA=5.60,STAT.F,ExtBa=12.85
23/09/2022,14:46:00,TEMP=29.5,BA=5.48,STAT.B=12.5,ExtBa=12.64
23/09/2022,14:58:17,TEMP=28.7,BA=5.48,STAT.A=12.5,ExtBa=12.72
23/09/2022,15:13:07,TEMP=27.6,BA=5.60,STAT.A=12.5,ExtBa=12.80
23/09/2022,15:25:10,TEMP=26.5,BA=5.60,STAT.A=12.5,ExtBa=12.82
23/09/2022,15:35:11,TEMP=25.9,BA=5.60,STAT.A=12.5,ExtBa=12.85
23/09/2022,15:43:41,TEMP=25.6,BA=5.60,STAT.C=12.5,ExtBa=12.86
23/09/2022,15:58:17,TEMP=25.7,BA=5.48,STAT.A=11.5,ExtBa=12.61
23/09/2022,16:00:13,TEMP=25.8,BA=5.52,STAT.A=11.5,ExtBa=12.62
23/09/2022,16:02:55,TEMP=25.7,BA=5.52,STAT.A=11.5,ExtBa=12.67
23/09/2022,16:07:52,TEMP=25.5,BA=5.52,STAT.A=11.5,ExtBa=12.73
23/09/2022,16:12:17,TEMP=25.3,BA=5.60,STAT.B=11.5,ExtBa=12.75
23/09/2022,16:21:31,TEMP=24.5,BA=5.60,STAT.A=11.5,ExtBa=12.80
23/09/2022,16:28:50,TEMP=24.0,BA=5.60,STAT.A=11.5,ExtBa=12.82
23/09/2022,16:34:45,TEMP=23.6,BA=5.52,STAT.A=11.5,ExtBa=12.74
23/09/2022,16:42:25,TEMP=23.1,BA=5.60,STAT.A=11.5,ExtBa=12.79
23/09/2022,16:44:18,TEMP=23.3,BA=5.60,STAT.A=11.5,ExtBa=12.74
23/09/2022,16:47:19,TEMP=23.0,BA=5.60,STAT.A=11.5,ExtBa=12.73